createdAt,value
2018-11-28T00:00:36.372Z,67.78
2018-11-28T00:05:39.133Z,67.73
2018-11-28T00:10:47.872Z,67.87
2018-11-28T00:15:50.509Z,67.91
2018-11-28T00:20:53.165Z,68.20
2018-11-28T00:25:58.820Z,67.96
2018-11-28T00:30:58.390Z,67.87
2018-11-28T00:36:01.172Z,67.67
2018-11-28T00:41:03.916Z,67.79
2018-11-28T00:46:06.655Z,67.67
2018-11-28T00:51:10.085Z,67.61
2018-11-28T00:56:12.663Z,67.73
2018-11-28T01:01:15.292Z,67.58
2018-11-28T01:06:17.873Z,67.23
2018-11-28T01:11:20.490Z,67.43
2018-11-28T01:16:23.104Z,66.40
2018-11-28T01:21:25.700Z,67.02
2018-11-28T01:26:28.301Z,66.37
2018-11-28T01:31:30.917Z,66.58
2018-11-28T01:36:33.510Z,66.02
2018-11-28T01:41:36.080Z,66.32
2018-11-28T01:46:38.685Z,66.52
2018-11-28T01:51:41.300Z,65.97
2018-11-28T01:56:43.900Z,65.48
2018-11-28T02:01:46.581Z,65.58
2018-11-28T02:06:49.168Z,65.30
2018-11-28T02:11:51.739Z,65.47
2018-11-28T02:16:54.594Z,65.34
2018-11-28T02:21:57.369Z,65.50
2018-11-28T02:26:59.972Z,65.50
2018-11-28T02:32:02.558Z,65.33
2018-11-28T02:37:05.361Z,65.46
2018-11-28T02:42:07.944Z,65.62
2018-11-28T02:47:10.650Z,65.05
2018-11-28T02:52:13.393Z,65.66
2018-11-28T02:57:16.002Z,65.48
2018-11-28T03:02:18.606Z,65.36
2018-11-28T03:07:21.193Z,65.54
2018-11-28T03:12:23.814Z,64.89
2018-11-28T03:17:26.515Z,65.59
2018-11-28T03:22:29.128Z,65.03
2018-11-28T03:27:31.748Z,65.12
2018-11-28T03:32:34.320Z,65.30
2018-11-28T03:37:36.973Z,65.09
2018-11-28T03:42:40.210Z,65.76
2018-11-28T03:47:43.968Z,65.32
2018-11-28T03:52:46.641Z,65.85
2018-11-28T03:57:49.238Z,65.45
2018-11-28T04:02:51.816Z,66.19
2018-11-28T04:07:54.488Z,66.31
2018-11-28T04:12:57.080Z,66.07
2018-11-28T04:17:59.651Z,66.43
2018-11-28T04:23:02.334Z,66.94
2018-11-28T04:28:05.241Z,66.67
2018-11-28T04:33:07.822Z,67.34
2018-11-28T04:38:10.392Z,67.44
2018-11-28T04:43:12.960Z,67.55
2018-11-28T04:48:15.563Z,66.89
2018-11-28T04:53:18.217Z,67.53
2018-11-28T04:58:20.820Z,67.79
2018-11-28T05:03:23.434Z,68.05
2018-11-28T05:08:26.038Z,68.39
2018-11-28T05:13:28.761Z,68.57
2018-11-28T05:18:31.417Z,68.78
2018-11-28T05:23:34.059Z,68.55
2018-11-28T05:28:36.726Z,69.07
2018-11-28T05:33:39.364Z,68.56
2018-11-28T05:38:41.956Z,69.21
2018-11-28T05:43:44.621Z,69.45
2018-11-28T05:48:47.260Z,69.43
2018-11-28T05:53:49.928Z,69.22
2018-11-28T05:58:52.800Z,69.09
2018-11-28T06:03:55.405Z,69.64
2018-11-28T06:08:58.040Z,69.68
2018-11-28T06:14:00.660Z,69.99
2018-11-28T06:19:03.415Z,70.64
2018-11-28T06:24:06.056Z,70.84
2018-11-28T06:29:09.607Z,70.28
2018-11-28T06:34:12.537Z,70.71
2018-11-28T06:39:15.219Z,71.02
2018-11-28T06:44:17.852Z,71.05
2018-11-28T06:49:20.512Z,70.66
2018-11-28T06:54:23.109Z,70.64
2018-11-28T06:59:25.704Z,70.94
2018-11-28T07:04:28.328Z,70.88
2018-11-28T07:09:31.024Z,71.05
2018-11-28T07:14:33.685Z,71.13
2018-11-28T07:19:36.398Z,71.47
2018-11-28T07:24:39.031Z,71.50
2018-11-28T07:29:41.742Z,71.02
2018-11-28T07:34:44.372Z,70.90
2018-11-28T07:39:46.973Z,71.04
2018-11-28T07:44:49.713Z,71.11
2018-11-28T07:49:52.480Z,70.82
2018-11-28T07:54:55.256Z,71.34
2018-11-28T07:59:58.016Z,70.91
2018-11-28T08:05:00.644Z,71.15
2018-11-28T08:10:03.623Z,70.63
2018-11-28T08:15:07.415Z,70.82
2018-11-28T08:20:10.053Z,70.28
2018-11-28T08:25:14.961Z,70.33
2018-11-28T08:30:24.219Z,70.07
2018-11-28T08:35:26.876Z,69.61
2018-11-28T08:40:29.562Z,69.42
2018-11-28T08:45:32.233Z,67.91
2018-11-28T08:50:36.850Z,66.55
2018-11-28T08:55:39.545Z,65.73
2018-11-28T09:00:42.146Z,64.52
2018-11-28T09:05:44.748Z,62.16
2018-11-28T09:10:47.382Z,60.42
2018-11-28T09:15:50.017Z,58.56
2018-11-28T09:20:52.746Z,56.18
2018-11-28T09:25:55.529Z,56.79
2018-11-28T09:30:58.179Z,53.50
2018-11-28T09:36:00.785Z,52.23
2018-11-28T09:41:03.401Z,50.30
2018-11-28T09:46:06.137Z,50.39
2018-11-28T09:51:08.810Z,48.06
2018-11-28T09:56:11.451Z,46.79
2018-11-28T10:01:14.077Z,47.15
2018-11-28T10:06:16.681Z,47.03
2018-11-28T10:11:19.309Z,46.35
2018-11-28T10:16:22.005Z,45.39
2018-11-28T10:21:24.600Z,44.32
2018-11-28T10:26:27.204Z,43.14
2018-11-28T10:31:29.833Z,43.44
2018-11-28T10:36:32.636Z,42.24
2018-11-28T10:41:35.284Z,42.83
2018-11-28T10:46:38.646Z,43.51
2018-11-28T10:51:41.310Z,45.14
2018-11-28T10:56:43.929Z,45.38
2018-11-28T11:01:51.748Z,46.27
2018-11-28T11:07:00.241Z,46.64
2018-11-28T11:12:05.228Z,46.39
2018-11-28T11:17:07.933Z,46.26
2018-11-28T11:22:10.587Z,46.84
2018-11-28T11:27:13.221Z,46.52
2018-11-28T11:32:15.912Z,47.01
2018-11-28T11:37:18.547Z,47.65
2018-11-28T11:42:21.173Z,47.72
2018-11-28T11:47:23.817Z,47.32
2018-11-28T11:52:26.417Z,47.47
2018-11-28T11:57:29.035Z,47.54
2018-11-28T12:02:31.672Z,47.39
2018-11-28T12:07:34.345Z,46.68
2018-11-28T12:12:37.033Z,46.24
2018-11-28T12:17:39.624Z,45.81
2018-11-28T12:22:43.894Z,45.86
2018-11-28T12:27:46.530Z,44.96
2018-11-28T12:32:49.164Z,44.73
2018-11-28T12:37:52.633Z,44.47
2018-11-28T12:42:55.305Z,44.89
2018-11-28T12:47:58.020Z,44.37
2018-11-28T12:53:01.724Z,44.96
2018-11-28T12:58:07.036Z,45.21
2018-11-28T13:03:11.684Z,45.05
2018-11-28T13:08:14.374Z,44.81
2018-11-28T13:13:18.125Z,44.12
2018-11-28T13:18:20.032Z,44.56
2018-11-28T13:23:22.698Z,44.72
2018-11-28T13:28:25.292Z,44.64
2018-11-28T13:33:28.076Z,44.84
2018-11-28T13:38:30.717Z,44.01
2018-11-28T13:43:33.449Z,44.46
2018-11-28T13:48:36.131Z,44.60
2018-11-28T13:53:38.851Z,44.63
2018-11-28T13:58:41.480Z,44.91
2018-11-28T14:03:44.079Z,44.75
2018-11-28T14:08:46.729Z,44.82
2018-11-28T14:13:49.401Z,45.48
2018-11-28T14:18:52.130Z,45.89
2018-11-28T14:23:54.809Z,46.40
2018-11-28T14:28:57.451Z,46.34
2018-11-28T14:34:00.251Z,47.37
2018-11-28T14:39:04.102Z,47.23
2018-11-28T14:44:06.793Z,47.60
2018-11-28T14:49:09.511Z,47.81
2018-11-28T14:54:12.294Z,48.13
2018-11-28T14:59:14.923Z,48.01
2018-11-28T15:04:17.570Z,48.91
2018-11-28T15:09:26.952Z,48.80
2018-11-28T15:14:29.578Z,48.75
2018-11-28T15:19:32.276Z,48.94
2018-11-28T15:24:34.918Z,49.34
2018-11-28T15:29:37.796Z,49.29
2018-11-28T15:34:40.491Z,49.39
2018-11-28T15:39:43.111Z,49.47
2018-11-28T15:44:45.848Z,49.40
2018-11-28T15:49:48.528Z,49.42
2018-11-28T15:54:51.152Z,49.72
2018-11-28T15:59:54.012Z,49.74
2018-11-28T16:04:56.629Z,49.88
2018-11-28T16:10:05.008Z,49.87
2018-11-28T16:15:10.588Z,50.23
2018-11-28T16:20:13.285Z,50.11
2018-11-28T16:25:15.924Z,50.62
2018-11-28T16:30:18.556Z,50.74
2018-11-28T16:35:21.198Z,50.37
2018-11-28T16:40:23.898Z,50.69
2018-11-28T16:45:26.548Z,51.52
2018-11-28T16:50:29.164Z,50.98
2018-11-28T16:55:31.783Z,52.09
2018-11-28T17:00:35.524Z,52.45
2018-11-28T17:05:38.151Z,52.43
2018-11-28T17:10:40.827Z,52.91
2018-11-28T17:15:43.587Z,53.04
2018-11-28T17:20:46.050Z,52.62
2018-11-28T17:25:48.648Z,52.94
2018-11-28T17:30:51.405Z,53.38
2018-11-28T17:35:53.951Z,53.25
2018-11-28T17:40:56.651Z,53.14
2018-11-28T17:45:59.300Z,53.11
2018-11-28T17:51:01.970Z,53.18
2018-11-28T17:56:05.086Z,54.03
2018-11-28T18:01:07.864Z,53.78
2018-11-28T18:06:10.470Z,54.04
2018-11-28T18:11:14.605Z,54.22
2018-11-28T18:16:17.167Z,55.10
2018-11-28T18:21:19.797Z,55.47
2018-11-28T18:26:22.505Z,55.93
2018-11-28T18:31:25.402Z,56.32
2018-11-28T18:36:28.038Z,56.81
2018-11-28T18:41:30.940Z,56.99
2018-11-28T18:46:33.454Z,57.62
2018-11-28T18:51:36.032Z,58.32
2018-11-28T18:56:38.781Z,58.88
2018-11-28T19:01:41.681Z,59.29
2018-11-28T19:06:44.321Z,59.48
2018-11-28T19:11:46.985Z,59.50
2018-11-28T19:16:49.598Z,59.00
2018-11-28T19:21:52.236Z,59.47
2018-11-28T19:26:54.885Z,60.35
2018-11-28T19:31:57.481Z,60.10
2018-11-28T19:37:00.151Z,60.11
2018-11-28T19:42:02.770Z,60.60
2018-11-28T19:47:05.344Z,61.13
2018-11-28T19:52:08.015Z,61.30
2018-11-28T19:57:10.600Z,62.06
2018-11-28T20:02:13.207Z,62.12
2018-11-28T20:07:15.826Z,62.11
2018-11-28T20:12:19.238Z,62.48
2018-11-28T20:17:21.849Z,63.12
2018-11-28T20:22:24.517Z,62.63
2018-11-28T20:27:27.149Z,62.82
2018-11-28T20:32:30.471Z,63.00
2018-11-28T20:37:32.576Z,63.04
2018-11-28T20:42:35.230Z,63.21
2018-11-28T20:47:37.921Z,63.63
2018-11-28T20:52:42.633Z,63.89
2018-11-28T20:57:45.236Z,64.22
2018-11-28T21:02:47.985Z,64.30
2018-11-28T21:07:50.585Z,64.34
2018-11-28T21:12:53.509Z,64.13
2018-11-28T21:17:56.288Z,64.03
2018-11-28T21:23:02.054Z,64.38
2018-11-28T21:28:04.842Z,64.63
2018-11-28T21:33:09.106Z,64.80
2018-11-28T21:38:11.756Z,64.30
2018-11-28T21:43:14.381Z,64.36
2018-11-28T21:48:16.974Z,65.07
2018-11-28T21:53:19.474Z,64.32
2018-11-28T21:58:22.014Z,64.62
2018-11-28T22:03:24.640Z,64.38
2018-11-28T22:08:27.228Z,64.00
2018-11-28T22:13:29.923Z,64.32
2018-11-28T22:18:32.548Z,64.17
2018-11-28T22:23:35.111Z,63.98
2018-11-28T22:28:37.745Z,63.66
2018-11-28T22:33:40.402Z,63.02
2018-11-28T22:38:42.996Z,63.28
2018-11-28T22:43:45.597Z,63.27
2018-11-28T22:48:48.224Z,63.26
2018-11-28T22:53:50.869Z,62.97
2018-11-28T22:58:53.530Z,63.21
2018-11-28T23:03:56.228Z,63.30
2018-11-28T23:08:59.096Z,63.42
2018-11-28T23:14:01.716Z,63.54
2018-11-28T23:19:04.550Z,63.45
2018-11-28T23:24:07.147Z,63.59
2018-11-28T23:29:09.735Z,63.43
2018-11-28T23:34:12.426Z,64.24
2018-11-28T23:39:15.015Z,64.13
2018-11-28T23:44:17.621Z,64.16
2018-11-28T23:49:20.351Z,64.69
2018-11-28T23:54:22.945Z,64.99
2018-11-28T23:59:25.534Z,64.49
